createdAt,value
2018-07-22T00:01:24.221Z,23.83
2018-07-22T00:03:51.589Z,23.63
2018-07-22T00:06:19.996Z,23.20
2018-07-22T00:08:47.368Z,23.90
2018-07-22T00:11:14.685Z,25.63
2018-07-22T00:13:42.220Z,24.50
2018-07-22T00:16:09.498Z,25.53
2018-07-22T00:18:36.896Z,24.27
2018-07-22T00:21:04.273Z,26.00
2018-07-22T00:23:31.548Z,25.90
2018-07-22T00:25:58.981Z,24.37
2018-07-22T00:28:26.312Z,25.10
2018-07-22T00:30:53.745Z,25.17
2018-07-22T00:33:21.126Z,25.40
2018-07-22T00:35:49.547Z,24.73
2018-07-22T00:38:17.161Z,25.37
2018-07-22T00:40:44.478Z,24.13
2018-07-22T00:43:11.817Z,25.73
2018-07-22T00:45:39.280Z,24.37
2018-07-22T00:48:06.581Z,24.40
2018-07-22T00:50:33.893Z,23.83
2018-07-22T00:53:01.213Z,25.00
2018-07-22T00:55:28.485Z,26.80
2018-07-22T00:57:55.750Z,28.63
2018-07-22T01:00:23.126Z,29.60
2018-07-22T01:02:50.392Z,29.50
2018-07-22T01:05:17.624Z,29.23
2018-07-22T01:07:44.873Z,30.20
2018-07-22T01:10:12.141Z,30.73
2018-07-22T01:12:39.399Z,29.80
2018-07-22T01:15:06.720Z,32.87
2018-07-22T01:17:34.709Z,33.70
2018-07-22T01:20:02.312Z,33.77
2018-07-22T01:22:29.565Z,30.50
2018-07-22T01:24:56.834Z,31.93
2018-07-22T01:27:24.477Z,28.90
2018-07-22T01:29:51.801Z,29.30
2018-07-22T01:32:19.069Z,25.93
2018-07-22T01:34:46.306Z,25.60
2018-07-22T01:37:13.709Z,26.80
2018-07-22T01:39:40.945Z,27.97
2018-07-22T01:42:08.201Z,28.57
2018-07-22T01:44:35.437Z,27.70
2018-07-22T01:47:02.756Z,28.97
2018-07-22T01:49:30.013Z,30.23
2018-07-22T01:51:57.253Z,28.30
2018-07-22T01:54:24.585Z,28.10
2018-07-22T01:56:52.092Z,33.03
2018-07-22T01:59:19.612Z,30.73
2018-07-22T02:01:46.952Z,30.23
2018-07-22T02:04:14.264Z,30.33
2018-07-22T02:06:41.609Z,32.23
2018-07-22T02:09:10.387Z,33.53
2018-07-22T02:11:37.676Z,35.33
2018-07-22T02:14:05.012Z,31.80
2018-07-22T02:16:32.308Z,31.53
2018-07-22T02:18:59.734Z,31.97
2018-07-22T02:21:27.046Z,31.00
2018-07-22T02:23:54.351Z,29.70
2018-07-22T02:26:21.664Z,30.93
2018-07-22T02:28:49.014Z,32.47
2018-07-22T02:31:16.337Z,29.60
2018-07-22T02:33:43.658Z,29.63
2018-07-22T02:36:10.983Z,29.73
2018-07-22T02:38:38.364Z,29.07
2018-07-22T02:41:05.712Z,31.43
2018-07-22T02:43:33.038Z,30.50
2018-07-22T02:46:00.420Z,30.57
2018-07-22T02:48:27.744Z,30.70
2018-07-22T02:50:55.107Z,32.07
2018-07-22T02:53:22.444Z,32.30
2018-07-22T02:55:50.024Z,32.50
2018-07-22T02:58:17.349Z,31.93
2018-07-22T03:00:44.779Z,34.73
2018-07-22T03:03:12.120Z,32.03
2018-07-22T03:05:39.379Z,32.73
2018-07-22T03:08:06.746Z,33.63
2018-07-22T03:10:34.065Z,31.67
2018-07-22T03:13:01.380Z,33.03
2018-07-22T03:15:28.681Z,31.63
2018-07-22T03:17:55.988Z,30.67
2018-07-22T03:20:23.312Z,31.00
2018-07-22T03:22:50.628Z,31.90
2018-07-22T03:25:17.937Z,30.10
2018-07-22T03:27:45.284Z,30.00
2018-07-22T03:30:12.575Z,28.60
2018-07-22T03:32:40.037Z,29.27
2018-07-22T03:35:07.405Z,27.20
2018-07-22T03:37:34.742Z,27.67
2018-07-22T03:40:02.073Z,26.43
2018-07-22T03:42:29.565Z,26.33
2018-07-22T03:44:56.910Z,29.53
2018-07-22T03:47:24.437Z,27.17
2018-07-22T03:49:51.923Z,27.27
2018-07-22T03:52:19.277Z,27.20
2018-07-22T03:54:46.596Z,26.50
2018-07-22T03:57:13.920Z,26.30
2018-07-22T03:59:42.076Z,26.40
2018-07-22T04:02:09.389Z,27.10
2018-07-22T04:04:36.724Z,26.20
2018-07-22T04:07:04.076Z,26.67
2018-07-22T04:09:33.539Z,27.07
2018-07-22T04:12:00.924Z,25.10
2018-07-22T04:14:28.281Z,25.50
2018-07-22T04:16:55.799Z,23.13
2018-07-22T04:19:23.107Z,23.47
2018-07-22T04:21:50.451Z,23.20
2018-07-22T04:24:17.760Z,23.13
2018-07-22T04:26:45.315Z,22.33
2018-07-22T04:29:12.716Z,19.90
2018-07-22T04:31:40.126Z,19.50
2018-07-22T04:34:07.499Z,20.30
2018-07-22T04:36:34.861Z,19.00
2018-07-22T04:39:02.330Z,16.57
2018-07-22T04:41:29.725Z,16.50
2018-07-22T04:43:57.031Z,17.93
2018-07-22T04:46:24.368Z,16.73
2018-07-22T04:48:51.688Z,14.07
2018-07-22T04:51:19.047Z,10.93
2018-07-22T04:53:46.352Z,11.20
2018-07-22T04:56:13.717Z,10.27
2018-07-22T04:58:41.043Z,11.40
2018-07-22T05:01:08.356Z,10.70
2018-07-22T05:03:35.797Z,10.63
2018-07-22T05:06:03.110Z,9.40
2018-07-22T05:08:30.428Z,9.40
2018-07-22T05:10:57.777Z,9.23
2018-07-22T05:13:25.119Z,9.30
2018-07-22T05:15:55.585Z,9.43
2018-07-22T05:18:22.917Z,9.17
2018-07-22T05:20:50.249Z,8.93
2018-07-22T05:23:17.513Z,8.67
2018-07-22T05:25:44.848Z,10.47
2018-07-22T05:28:12.204Z,10.43
2018-07-22T05:30:39.482Z,11.63
2018-07-22T05:33:06.785Z,10.93
2018-07-22T05:35:34.096Z,8.87
2018-07-22T05:38:01.394Z,9.20
2018-07-22T05:40:28.754Z,10.03
2018-07-22T05:42:56.028Z,9.63
2018-07-22T05:45:23.341Z,9.77
2018-07-22T05:47:50.627Z,9.80
2018-07-22T05:50:17.972Z,9.87
2018-07-22T05:52:45.277Z,9.57
2018-07-22T05:55:12.700Z,9.40
2018-07-22T05:57:39.985Z,9.27
2018-07-22T06:00:07.778Z,9.53
2018-07-22T06:02:35.233Z,10.23
2018-07-22T06:05:02.545Z,9.23
2018-07-22T06:07:29.869Z,10.10
2018-07-22T06:09:57.200Z,9.80
2018-07-22T06:12:24.610Z,9.73
2018-07-22T06:14:51.911Z,10.00
2018-07-22T06:17:19.245Z,10.63
2018-07-22T06:19:47.116Z,10.40
2018-07-22T06:22:15.495Z,10.03
2018-07-22T06:24:42.916Z,10.33
2018-07-22T06:27:10.220Z,10.33
2018-07-22T06:29:37.659Z,9.93
2018-07-22T06:32:05.206Z,10.37
2018-07-22T06:34:32.482Z,10.33
2018-07-22T06:37:00.064Z,11.80
2018-07-22T06:39:27.365Z,10.70
2018-07-22T06:41:54.700Z,10.43
2018-07-22T06:44:22.060Z,10.63
2018-07-22T06:46:49.324Z,10.37
2018-07-22T06:49:16.632Z,10.93
2018-07-22T06:51:44.007Z,10.50
2018-07-22T06:54:11.374Z,11.63
2018-07-22T06:56:38.701Z,10.60
2018-07-22T06:59:06.086Z,11.90
2018-07-22T07:01:33.536Z,11.27
2018-07-22T07:04:00.953Z,10.80
2018-07-22T07:06:28.476Z,11.80
2018-07-22T07:08:55.800Z,11.97
2018-07-22T07:11:23.148Z,12.20
2018-07-22T07:13:50.491Z,11.20
2018-07-22T07:16:17.879Z,12.43
2018-07-22T07:18:45.278Z,12.10
2018-07-22T07:21:12.689Z,11.70
2018-07-22T07:23:40.141Z,11.43
2018-07-22T07:26:07.559Z,11.73
2018-07-22T07:28:35.036Z,11.90
2018-07-22T07:31:02.329Z,12.17
2018-07-22T07:33:29.685Z,12.50
2018-07-22T07:35:57.049Z,12.27
2018-07-22T07:38:24.392Z,12.13
2018-07-22T07:40:51.735Z,12.47
2018-07-22T07:43:19.084Z,12.40
2018-07-22T07:45:46.448Z,12.83
2018-07-22T07:48:13.922Z,13.97
2018-07-22T07:50:41.313Z,12.67
2018-07-22T07:53:08.653Z,12.83
2018-07-22T07:55:35.933Z,13.27
2018-07-22T07:58:03.288Z,14.00
2018-07-22T08:00:30.649Z,13.67
2018-07-22T08:02:57.973Z,13.73
2018-07-22T08:05:25.346Z,12.90
2018-07-22T08:07:52.647Z,13.27
2018-07-22T08:10:20.050Z,13.00
2018-07-22T08:12:47.516Z,13.23
2018-07-22T08:15:14.920Z,14.60
2018-07-22T08:17:42.263Z,12.57
2018-07-22T08:20:09.608Z,13.50
2018-07-22T08:22:36.956Z,12.83
2018-07-22T08:25:05.116Z,14.57
2018-07-22T08:27:32.411Z,13.80
2018-07-22T08:30:02.912Z,14.00
2018-07-22T08:32:30.236Z,11.43
2018-07-22T08:34:58.734Z,11.90
2018-07-22T08:37:26.057Z,13.97
2018-07-22T08:39:53.399Z,12.30
2018-07-22T08:42:20.740Z,11.87
2018-07-22T08:44:48.229Z,11.93
2018-07-22T08:47:15.628Z,11.90
2018-07-22T08:49:42.948Z,11.07
2018-07-22T08:52:10.360Z,11.90
2018-07-22T08:54:38.445Z,12.00
2018-07-22T08:57:05.752Z,11.20
2018-07-22T08:59:33.197Z,13.10
2018-07-22T09:02:00.577Z,12.53
2018-07-22T09:04:27.964Z,11.90
2018-07-22T09:06:55.319Z,11.60
2018-07-22T09:09:22.676Z,12.93
2018-07-22T09:11:50.104Z,11.10
2018-07-22T09:14:17.393Z,12.60
2018-07-22T09:16:45.679Z,11.77
2018-07-22T09:19:13.113Z,12.27
2018-07-22T09:21:40.415Z,10.10
2018-07-22T09:24:07.783Z,10.67
2018-07-22T09:26:35.151Z,11.07
2018-07-22T09:29:02.693Z,12.00
2018-07-22T09:31:30.121Z,11.83
2018-07-22T09:33:57.486Z,11.33
2018-07-22T09:36:24.888Z,12.53
2018-07-22T09:38:52.228Z,9.97
2018-07-22T09:41:19.491Z,10.83
2018-07-22T09:43:46.804Z,11.33
2018-07-22T09:46:15.241Z,10.93
2018-07-22T09:48:42.686Z,10.13
2018-07-22T09:51:10.269Z,11.00
2018-07-22T09:53:37.715Z,9.53
2018-07-22T09:56:05.123Z,11.13
2018-07-22T09:58:32.532Z,10.97
2018-07-22T10:01:00.699Z,11.47
2018-07-22T10:03:29.044Z,10.60
2018-07-22T10:05:56.536Z,9.80
2018-07-22T10:08:23.921Z,9.50
2018-07-22T10:10:51.179Z,11.13
2018-07-22T10:13:18.521Z,10.50
2018-07-22T10:15:45.809Z,11.03
2018-07-22T10:18:13.135Z,9.23
2018-07-22T10:20:40.431Z,10.00
2018-07-22T10:23:07.829Z,9.80
2018-07-22T10:25:35.119Z,10.40
2018-07-22T10:28:02.420Z,11.03
2018-07-22T10:30:29.758Z,10.80
2018-07-22T10:32:57.052Z,11.83
2018-07-22T10:35:24.308Z,13.13
2018-07-22T10:37:51.624Z,14.07
2018-07-22T10:40:18.912Z,13.70
2018-07-22T10:42:46.218Z,13.93
2018-07-22T10:45:13.500Z,13.50
2018-07-22T10:47:40.846Z,12.53
2018-07-22T10:50:08.440Z,13.30
2018-07-22T10:52:35.784Z,13.83
2018-07-22T10:55:03.225Z,12.70
2018-07-22T10:57:30.535Z,12.87
2018-07-22T10:59:57.879Z,13.37
2018-07-22T11:02:25.304Z,13.30
2018-07-22T11:04:52.612Z,13.87
2018-07-22T11:07:20.684Z,12.87
2018-07-22T11:09:48.088Z,14.43
2018-07-22T11:12:15.525Z,12.90
2018-07-22T11:14:42.968Z,12.30
2018-07-22T11:17:10.343Z,14.00
2018-07-22T11:19:37.692Z,12.77
2018-07-22T11:22:05.091Z,13.83
2018-07-22T11:24:32.557Z,14.63
2018-07-22T11:26:59.985Z,13.80
2018-07-22T11:29:27.340Z,16.20
2018-07-22T11:31:54.685Z,16.27
2018-07-22T11:34:22.088Z,14.17
2018-07-22T11:36:49.417Z,15.80
2018-07-22T11:39:16.718Z,15.53
2018-07-22T11:41:44.079Z,15.80
2018-07-22T11:44:11.484Z,15.07
2018-07-22T11:46:39.239Z,15.90
2018-07-22T11:49:07.036Z,15.47
2018-07-22T11:51:34.437Z,17.03
2018-07-22T11:54:01.783Z,14.70
2018-07-22T11:56:29.272Z,16.67
2018-07-22T11:58:56.600Z,15.37
2018-07-22T12:01:24.007Z,15.13
2018-07-22T12:03:51.422Z,14.00
2018-07-22T12:06:18.774Z,14.30
2018-07-22T12:08:46.105Z,14.73
2018-07-22T12:11:13.533Z,14.90
2018-07-22T12:13:41.103Z,15.87
2018-07-22T12:16:08.573Z,14.90
2018-07-22T12:18:35.980Z,15.00
2018-07-22T12:21:03.353Z,16.37
2018-07-22T12:23:30.872Z,17.20
2018-07-22T12:25:58.290Z,16.20
2018-07-22T12:28:25.606Z,17.37
2018-07-22T12:30:53.089Z,16.77
2018-07-22T12:33:20.393Z,16.10
2018-07-22T12:35:48.026Z,16.23
2018-07-22T12:38:15.400Z,15.80
2018-07-22T12:40:42.733Z,15.20
2018-07-22T12:43:10.076Z,14.10
2018-07-22T12:45:37.496Z,15.37
2018-07-22T12:48:04.820Z,15.83
2018-07-22T12:50:32.129Z,14.83
2018-07-22T12:52:59.444Z,15.33
2018-07-22T12:55:26.808Z,18.50
2018-07-22T12:57:54.175Z,18.77
2018-07-22T13:00:21.556Z,20.30
2018-07-22T13:02:48.974Z,19.90
2018-07-22T13:05:16.295Z,20.40
2018-07-22T13:07:43.601Z,19.60
2018-07-22T13:10:11.171Z,20.47
2018-07-22T13:12:38.592Z,19.80
2018-07-22T13:15:06.561Z,20.47
2018-07-22T13:17:34.032Z,21.27
2018-07-22T13:20:01.393Z,20.97
2018-07-22T13:22:28.861Z,20.83
2018-07-22T13:24:56.486Z,20.00
2018-07-22T13:27:24.083Z,17.57
2018-07-22T13:29:51.463Z,17.83
2018-07-22T13:32:18.890Z,16.30
2018-07-22T13:34:46.237Z,17.27
2018-07-22T13:37:13.602Z,16.10
2018-07-22T13:39:41.264Z,14.90
2018-07-22T13:42:08.636Z,16.93
2018-07-22T13:44:36.176Z,17.60
2018-07-22T13:47:03.554Z,16.23
2018-07-22T13:49:30.964Z,17.93
2018-07-22T13:51:58.429Z,18.43
2018-07-22T13:54:25.828Z,18.13
2018-07-22T13:56:53.240Z,17.50
2018-07-22T13:59:21.263Z,15.40
2018-07-22T14:01:48.654Z,15.00
2018-07-22T14:04:16.060Z,17.43
2018-07-22T14:06:43.429Z,15.47
2018-07-22T14:09:11.760Z,15.27
2018-07-22T14:11:39.100Z,15.40
2018-07-22T14:14:07.001Z,15.67
2018-07-22T14:16:34.316Z,17.40
2018-07-22T14:19:01.697Z,17.80
2018-07-22T14:21:29.327Z,15.40
2018-07-22T14:23:56.717Z,13.00
2018-07-22T14:26:24.112Z,13.40
2018-07-22T14:28:52.101Z,13.13
2018-07-22T14:31:19.452Z,11.77
2018-07-22T14:33:48.164Z,12.47
2018-07-22T14:36:15.472Z,12.80
2018-07-22T14:38:43.154Z,12.67
2018-07-22T14:41:10.689Z,12.43
2018-07-22T14:43:37.993Z,13.53
2018-07-22T14:46:05.351Z,12.70
2018-07-22T14:48:32.700Z,13.37
2018-07-22T14:51:00.097Z,11.90
2018-07-22T14:53:27.508Z,12.43
2018-07-22T14:55:54.826Z,12.37
2018-07-22T14:58:22.209Z,12.27
2018-07-22T15:00:49.641Z,11.97
2018-07-22T15:03:17.044Z,12.30
2018-07-22T15:05:45.670Z,12.30
2018-07-22T15:08:13.024Z,12.40
2018-07-22T15:10:40.449Z,10.87
2018-07-22T15:13:07.779Z,12.30
2018-07-22T15:15:35.269Z,12.10
2018-07-22T15:18:02.576Z,12.47
2018-07-22T15:20:29.973Z,13.00
2018-07-22T15:22:58.380Z,12.40
2018-07-22T15:25:25.678Z,13.10
2018-07-22T15:27:52.974Z,13.17
2018-07-22T15:30:20.341Z,12.30
2018-07-22T15:32:47.690Z,12.93
2018-07-22T15:35:15.091Z,13.10
2018-07-22T15:37:42.601Z,12.37
2018-07-22T15:40:09.925Z,11.83
2018-07-22T15:42:37.890Z,13.53
2018-07-22T15:45:05.326Z,13.23
2018-07-22T15:47:33.620Z,11.63
2018-07-22T15:50:00.952Z,12.60
2018-07-22T15:52:28.269Z,12.93
2018-07-22T15:54:55.704Z,14.17
2018-07-22T15:57:23.056Z,13.40
2018-07-22T15:59:50.378Z,14.47
2018-07-22T16:02:17.631Z,14.23
2018-07-22T16:04:44.895Z,14.60
2018-07-22T16:07:13.506Z,13.83
2018-07-22T16:09:40.832Z,15.80
2018-07-22T16:12:08.176Z,14.40
2018-07-22T16:14:35.524Z,15.10
2018-07-22T16:17:02.866Z,15.60
2018-07-22T16:19:30.178Z,14.40
2018-07-22T16:21:57.462Z,15.57
2018-07-22T16:24:24.797Z,15.03
2018-07-22T16:26:52.120Z,14.57
2018-07-22T16:29:19.398Z,14.90
2018-07-22T16:31:46.729Z,14.53
2018-07-22T16:34:14.221Z,15.20
2018-07-22T16:36:41.494Z,14.33
2018-07-22T16:39:09.481Z,14.30
2018-07-22T16:41:36.807Z,13.90
2018-07-22T16:44:04.501Z,13.60
2018-07-22T16:46:32.152Z,14.43
2018-07-22T16:48:59.431Z,15.37
2018-07-22T16:51:27.825Z,14.77
2018-07-22T16:53:55.131Z,14.50
2018-07-22T16:56:22.996Z,14.70
2018-07-22T16:58:50.252Z,13.80
2018-07-22T17:01:17.534Z,13.50
2018-07-22T17:03:45.137Z,13.30
2018-07-22T17:06:12.417Z,14.30
2018-07-22T17:08:39.769Z,14.40
2018-07-22T17:11:07.072Z,15.00
2018-07-22T17:13:34.477Z,14.67
2018-07-22T17:16:01.784Z,14.60
2018-07-22T17:18:29.097Z,14.47
2018-07-22T17:20:56.429Z,13.17
2018-07-22T17:23:23.753Z,13.77
2018-07-22T17:25:51.096Z,13.20
2018-07-22T17:28:18.549Z,13.67
2018-07-22T17:30:45.876Z,13.70
2018-07-22T17:33:13.192Z,13.53
2018-07-22T17:35:40.516Z,13.33
2018-07-22T17:38:07.821Z,13.20
2018-07-22T17:40:35.427Z,12.67
2018-07-22T17:43:02.724Z,13.17
2018-07-22T17:45:30.033Z,13.47
2018-07-22T17:48:03.011Z,13.60
2018-07-22T17:50:30.381Z,13.40
2018-07-22T17:52:57.720Z,12.67
2018-07-22T17:55:26.226Z,13.77
2018-07-22T17:57:53.551Z,13.63
2018-07-22T18:00:20.963Z,12.30
2018-07-22T18:02:51.635Z,13.53
2018-07-22T18:05:19.043Z,13.20
2018-07-22T18:07:46.693Z,13.50
2018-07-22T18:10:14.077Z,12.60
2018-07-22T18:12:41.358Z,13.60
2018-07-22T18:15:08.773Z,13.40
2018-07-22T18:17:36.220Z,14.23
2018-07-22T18:20:03.629Z,13.47
2018-07-22T18:22:31.011Z,13.00
2018-07-22T18:24:58.329Z,13.37
2018-07-22T18:27:26.856Z,12.43
2018-07-22T18:29:54.144Z,13.87
2018-07-22T18:32:21.459Z,14.27
2018-07-22T18:34:48.820Z,13.50
2018-07-22T18:37:16.186Z,13.00
2018-07-22T18:39:43.532Z,13.17
2018-07-22T18:42:10.880Z,13.00
2018-07-22T18:44:38.365Z,13.47
2018-07-22T18:47:05.650Z,14.20
2018-07-22T18:49:33.036Z,13.60
2018-07-22T18:52:00.382Z,15.30
2018-07-22T18:54:27.719Z,13.43
2018-07-22T18:56:55.063Z,14.57
2018-07-22T18:59:22.465Z,14.00
2018-07-22T19:01:51.135Z,14.70
2018-07-22T19:04:18.494Z,14.17
2018-07-22T19:06:45.809Z,14.23
2018-07-22T19:09:13.141Z,14.70
2018-07-22T19:11:40.621Z,14.50
2018-07-22T19:14:08.016Z,15.07
2018-07-22T19:16:35.745Z,16.17
2018-07-22T19:19:03.105Z,15.47
2018-07-22T19:21:30.483Z,15.70
2018-07-22T19:23:57.845Z,16.10
2018-07-22T19:26:25.179Z,15.63
2018-07-22T19:28:52.528Z,15.07
2018-07-22T19:31:19.922Z,16.10
2018-07-22T19:33:47.257Z,15.47
2018-07-22T19:36:14.695Z,15.77
2018-07-22T19:38:42.091Z,15.00
2018-07-22T19:41:09.447Z,15.20
2018-07-22T19:43:41.571Z,15.93
2018-07-22T19:46:09.157Z,15.43
2018-07-22T19:48:36.470Z,14.83
2018-07-22T19:51:03.857Z,15.83
2018-07-22T19:53:31.174Z,15.23
2018-07-22T19:55:58.536Z,15.87
2018-07-22T19:58:25.868Z,15.30
2018-07-22T20:01:01.148Z,15.80
2018-07-22T20:03:29.427Z,15.10
2018-07-22T20:05:56.797Z,15.20
2018-07-22T20:08:24.077Z,15.53
2018-07-22T20:10:51.389Z,14.80
2018-07-22T20:13:18.757Z,14.50
2018-07-22T20:15:46.112Z,15.60
2018-07-22T20:18:13.626Z,15.57
2018-07-22T20:20:40.879Z,14.53
2018-07-22T20:23:08.193Z,15.07
2018-07-22T20:25:35.478Z,15.33
2018-07-22T20:28:03.126Z,14.43
2018-07-22T20:30:30.589Z,15.70
2018-07-22T20:32:58.102Z,14.90
2018-07-22T20:35:25.388Z,15.83
2018-07-22T20:37:52.679Z,14.83
2018-07-22T20:40:20.013Z,16.13
2018-07-22T20:42:47.328Z,16.67
2018-07-22T20:45:14.730Z,15.93
2018-07-22T20:47:41.962Z,17.20
2018-07-22T20:50:09.251Z,16.33
2018-07-22T20:52:36.600Z,15.20
2018-07-22T20:55:04.051Z,16.30
2018-07-22T20:57:31.521Z,16.10
2018-07-22T20:59:58.857Z,16.37
2018-07-22T21:02:26.447Z,15.83
2018-07-22T21:04:58.417Z,16.40
2018-07-22T21:07:25.716Z,15.93
2018-07-22T21:09:53.069Z,16.40
2018-07-22T21:12:42.475Z,15.73
2018-07-22T21:15:09.963Z,15.80
2018-07-22T21:17:37.444Z,15.67
2018-07-22T21:20:05.065Z,16.53
2018-07-22T21:22:32.383Z,16.20
2018-07-22T21:24:59.696Z,16.30
2018-07-22T21:27:27.325Z,17.67
2018-07-22T21:29:55.390Z,17.23
2018-07-22T21:32:22.740Z,15.70
2018-07-22T21:34:50.305Z,16.00
2018-07-22T21:37:17.712Z,16.87
2018-07-22T21:39:46.132Z,15.50
2018-07-22T21:42:13.861Z,17.03
2018-07-22T21:44:41.719Z,18.03
2018-07-22T21:47:10.301Z,18.60
2018-07-22T21:49:37.624Z,17.40
2018-07-22T21:52:05.073Z,16.93
2018-07-22T21:54:32.416Z,18.97
2018-07-22T21:57:00.862Z,17.00
2018-07-22T21:59:28.192Z,17.17
2018-07-22T22:01:55.618Z,16.60
2018-07-22T22:04:22.964Z,15.87
2018-07-22T22:06:50.356Z,17.90
2018-07-22T22:09:17.669Z,16.73
2018-07-22T22:11:45.051Z,17.67
2018-07-22T22:14:12.368Z,18.57
2018-07-22T22:16:39.726Z,19.73
2018-07-22T22:19:07.045Z,17.67
2018-07-22T22:21:34.386Z,17.67
2018-07-22T22:24:02.216Z,18.70
2018-07-22T22:26:29.583Z,17.73
2018-07-22T22:28:57.584Z,18.00
2018-07-22T22:31:24.871Z,19.47
2018-07-22T22:33:52.262Z,17.50
2018-07-22T22:36:19.559Z,19.57
2018-07-22T22:38:46.929Z,17.97
2018-07-22T22:41:14.377Z,17.60
2018-07-22T22:43:41.651Z,18.03
2018-07-22T22:46:08.963Z,17.80
2018-07-22T22:48:36.312Z,18.53
2018-07-22T22:51:03.608Z,19.60
2018-07-22T22:53:30.933Z,18.90
2018-07-22T22:55:58.237Z,18.80
2018-07-22T22:58:37.053Z,20.00
2018-07-22T23:01:04.517Z,18.13
2018-07-22T23:03:31.909Z,18.50
2018-07-22T23:05:59.240Z,17.83
2018-07-22T23:08:26.629Z,18.40
2018-07-22T23:10:53.948Z,19.50
2018-07-22T23:13:21.327Z,18.83
2018-07-22T23:15:48.592Z,19.77
2018-07-22T23:18:15.864Z,19.00
2018-07-22T23:20:43.208Z,20.90
2018-07-22T23:23:11.236Z,20.70
2018-07-22T23:25:38.541Z,20.27
2018-07-22T23:28:05.833Z,19.17
2018-07-22T23:30:33.170Z,19.87
2018-07-22T23:33:00.664Z,19.47
2018-07-22T23:35:27.984Z,20.37
2018-07-22T23:37:55.247Z,18.83
2018-07-22T23:40:22.630Z,18.63
2018-07-22T23:42:49.972Z,18.47
2018-07-22T23:45:17.308Z,20.60
2018-07-22T23:47:44.684Z,20.80
2018-07-22T23:50:11.969Z,20.00
2018-07-22T23:52:39.299Z,20.17
2018-07-22T23:55:06.580Z,20.83
2018-07-22T23:57:33.911Z,19.53
